Terminal Aerodrome Forecast
Issued by NWS

Home | Current Version | Previous Version | Text Only | Print | Product List | Glossary On
Versions: 1 2 3 4 5 6 7 8 9 10 11 12 13 14 15
085
FTUS43 KEAX 201758 RRA
TAFSTJ
TAF
KSTJ 201758Z 2018/2118 18010KT P6SM SCT250
     FM210700 19008KT P6SM SCT200 WS020/21040KT
     FM211200 20006KT P6SM SCT200=

USA.gov is the U.S. government's official web portal to all federal, state and local government web resources and services.